Latest Weather Observations for Moomba Airport

IDS60801

Issued at 4:01 pm CST Wednesday 26 July 2017 (issued every 30 minutes, with the page automatically refreshed every 10 minutes)

About weather observations | Map of weather stations | Latest weather observations for SA | Other Formats
Station Details ID: 017123 Name: MOOMBA AIRPORT Lat: -28.10 Lon: 140.20 Height: 37.8 m
Data from the previous 72 hours. | See also: Recent months at Moomba Airport
Date/Time
CST
Temp
°C
App
Temp
°C
Dew
Point
°C
Rel
Hum
%
Delta-T
°C
Wind Press
QNH
hPa
Press
MSL
hPa
Rain since
9am
mm
Dir  Spd
km/h
Gust
km/h
Spd
kts
Gust
kts
26/04:00pm 27.2 23.0 -3.6 13 13.5 WSW 9 13 5 7 1020.8 1020.9 0.0
26/03:30pm 27.0 22.4 -3.7 13 13.4 SW 11 17 6 9 1020.6 1020.6 0.0
26/03:00pm 27.5 23.6 -4.4 12 13.8 W 7 17 4 9 1020.6 1020.6 0.0
26/02:30pm 27.4 22.8 -4.5 12 13.8 W 11 17 6 9 1020.7 1020.8 0.0
26/02:00pm 26.9 23.3 -3.8 13 13.4 NNW 6 13 3 7 1020.9 1021.0 0.0
26/01:30pm 26.7 22.5 -4.0 13 13.3 W 9 22 5 12 1021.3 1021.4 0.0
26/01:00pm 26.8 23.6 -3.9 13 13.4 WNW 4 9 2 5 1021.6 1021.7 0.0
26/12:30pm 26.9 23.7 -3.8 13 13.3 ENE 4 9 2 5 1022.0 1022.1 0.0
26/12:00pm 26.4 23.2 -3.2 14 12.9 N 4 9 2 5 1022.6 1022.7 0.0
26/11:30am 24.9 21.7 -3.5 15 12.2 SW 4 9 2 5 1023.1 1023.2 0.0
26/11:00am 24.1 20.5 -3.3 16 11.8 ESE 6 9 3 5 1023.4 1023.5 0.0
26/10:30am 23.4 20.5 -3.8 16 11.4 SE 2 7 1 4 1023.7 1023.8 0.0
26/10:00am 23.1 20.7 -3.3 17 11.2 CALM 0 0 0 0 1023.8 1023.9 0.0
26/09:30am 20.9 17.2 -2.9 20 10.0 ENE 7 9 4 5 1023.7 1023.8 0.0
26/09:00am 18.8 15.2 -3.3 22 9.0 ESE 6 7 3 4 1023.6 1023.7 0.0
26/08:30am 16.5 13.7 -3.0 26 7.8 ESE 2 6 1 3 1023.5 1023.6 0.0
26/08:00am 13.9 11.4 -3.8 29 6.8 CALM 0 6 0 3 1023.4 1023.5 0.0
26/07:30am 11.4 8.4 -4.7 32 5.9 S 2 6 1 3 1023.0 1023.1 0.0
26/07:00am 11.3 7.0 -4.4 33 5.8 SSW 9 11 5 6 1022.7 1022.8 0.0
26/06:30am 10.5 6.2 -5.1 33 5.6 SW 9 13 5 7 1022.6 1022.7 0.0
26/06:00am 12.2 7.2 -4.4 31 6.1 SSW 13 20 7 11 1022.3 1022.4 0.0
26/05:30am 9.4 6.3 -6.0 33 5.3 NNW 2 7 1 4 1021.2 1021.3 0.0
26/05:00am 11.3 8.3 -5.2 31 6.0 NNW 2 6 1 3 1021.0 1021.1 0.0
26/04:30am 11.6 8.6 -4.9 31 6.0 WNW 2 7 1 4 1020.9 1021.0 0.0
26/04:00am 11.8 6.7 -5.2 30 6.2 NNE 13 17 7 9 1020.7 1020.8 0.0
26/03:30am 12.6 7.9 -4.9 29 6.4 N 11 13 6 7 1020.6 1020.6 0.0
26/03:00am 12.6 7.9 -4.9 29 6.4 N 11 15 6 8 1020.7 1020.8 0.0
26/02:30am 13.5 8.1 -4.6 28 6.8 N 15 17 8 9 1020.7 1020.8 0.0
26/02:00am 13.3 8.2 -4.8 28 6.8 N 13 13 7 7 1020.8 1020.9 0.0
26/01:30am 13.7 8.7 -4.5 28 6.8 N 13 17 7 9 1020.9 1021.0 0.0
26/01:00am 13.6 8.2 -4.5 28 6.8 NNE 15 17 8 9 1021.0 1021.1 0.0
26/12:30am 13.3 8.3 -4.3 29 6.6 N 13 15 7 8 1021.3 1021.4 0.0
26/12:00am 13.0 8.0 -4.6 29 6.6 NNE 13 15 7 8 1021.3 1021.4 0.0
 
Date/Time
CST
Temp
°C
App
Temp
°C
Dew
Point
°C
Rel
Hum
%
Delta-T
°C
Wind Press
QNH
hPa
Press
MSL
hPa
Rain since
9am
mm
Dir  Spd
km/h
Gust
km/h
Spd
kts
Gust
kts
25/11:30pm 14.7 10.5 -4.1 27 7.2 NW 9 11 5 6 1021.6 1021.7 0.0
25/11:00pm 14.6 10.0 -4.2 27 7.2 N 11 13 6 7 1021.6 1021.7 0.0
25/10:30pm 15.0 12.1 -3.8 27 7.3 NNW 2 7 1 4 1021.8 1021.9 0.0
25/10:00pm 14.8 10.5 -4.5 26 7.4 NNE 9 11 5 6 1021.6 1021.7 0.0
25/09:30pm 15.7 12.0 -4.2 25 7.7 NNW 6 9 3 5 1021.6 1021.7 0.0
25/09:00pm 16.6 13.7 -4.0 24 8.1 NW 2 11 1 6 1021.6 1021.7 0.0
25/08:30pm 16.7 14.2 -3.9 24 8.1 CALM 0 0 0 0 1021.5 1021.6 0.0
25/08:00pm 17.6 13.0 -3.7 23 8.5 NNW 11 13 6 7 1021.3 1021.4 0.0
25/07:30pm 18.0 13.1 -3.4 23 8.6 N 13 15 7 8 1020.9 1021.0 0.0
25/07:00pm 18.3 13.7 -4.4 21 9.0 N 11 13 6 7 1020.7 1020.8 0.0
25/06:30pm 20.0 15.8 -3.6 20 9.7 NW 9 11 5 6 1020.4 1020.4 0.0
25/06:00pm 21.7 17.5 -3.6 18 10.5 NNW 9 11 5 6 1020.1 1020.1 0.0
25/05:30pm 24.7 20.2 -3.6 15 12.1 NW 11 13 6 7 1019.9 1019.9 0.0
25/05:00pm 26.6 21.4 -3.1 14 13.1 NNW 15 19 8 10 1019.7 1019.7 0.0
25/04:30pm 27.6 23.4 -4.3 12 13.8 N 9 17 5 9 1019.4 1019.4 0.0
25/04:00pm 27.9 22.9 -4.1 12 14.0 NNW 13 22 7 12 1019.5 1019.5 0.0
25/03:30pm 27.9 22.2 -4.1 12 14.0 NNW 17 26 9 14 1019.5 1019.5 0.0
25/03:00pm 28.3 22.5 -4.9 11 14.3 NNW 17 20 9 11 1019.6 1019.6 0.0
25/02:30pm 27.7 21.4 -5.4 11 14.1 NW 19 24 10 13 1019.8 1019.8 0.0
25/02:00pm 27.8 21.9 -5.3 11 14.2 N 17 30 9 16 1020.1 1020.1 0.0
25/01:30pm 27.5 21.7 -4.4 12 13.8 NNW 17 26 9 14 1020.4 1020.4 0.0
25/01:00pm 27.1 21.3 -4.7 12 13.7 N 17 24 9 13 1020.8 1020.9 0.0
25/12:30pm 27.2 21.0 -4.6 12 13.7 NNW 19 26 10 14 1021.5 1021.6 0.0
25/12:00pm 26.6 20.5 -4.0 13 13.2 N 19 24 10 13 1022.1 1022.2 0.0
25/11:30am 26.0 19.4 -3.5 14 12.8 N 22 28 12 15 1022.6 1022.7 0.0
25/11:00am 25.1 18.1 -3.3 15 12.3 N 24 33 13 18 1023.0 1023.1 0.0
25/10:30am 23.7 17.2 -2.8 17 11.4 N 22 28 12 15 1023.5 1023.6 0.0
25/10:00am 21.8 15.8 -2.8 19 10.5 NNE 19 22 10 12 1023.9 1024.0 0.0
25/09:30am 19.8 14.2 -3.1 21 9.4 NNE 17 20 9 11 1024.1 1024.2 0.0
25/09:00am 17.4 13.0 -2.8 25 8.2 NNE 11 15 6 8 1024.1 1024.2 0.0
25/08:30am 15.1 10.3 -2.3 30 7.0 NNE 13 17 7 9 1023.7 1023.8 0.0
25/08:00am 13.5 9.1 -2.8 32 6.4 NNE 11 13 6 7 1023.6 1023.7 0.0
25/07:30am 11.3 5.7 -2.5 38 5.3 NNE 17 19 9 10 1023.0 1023.1 0.0
25/07:00am 9.7 4.9 -2.9 41 4.7 NE 13 15 7 8 1022.9 1023.0 0.0
25/06:30am 10.5 5.3 -2.8 39 5.0 NNE 15 17 8 9 1022.5 1022.6 0.0
25/06:00am 10.5 4.9 -3.2 38 5.1 NNE 17 19 9 10 1022.1 1022.2 0.0
25/05:30am 10.4 4.8 -2.9 39 5.0 NE 17 17 9 9 1022.0 1022.1 0.0
25/05:00am 10.1 5.3 -2.9 40 4.9 NE 13 17 7 9 1021.7 1021.8 0.0
25/04:30am 10.5 5.7 -2.8 39 5.0 NE 13 15 7 8 1021.6 1021.7 0.0
25/04:00am 10.7 5.9 -2.3 40 5.0 NE 13 15 7 8 1021.5 1021.6 0.0
25/03:30am 10.3 5.9 -2.4 41 4.8 ENE 11 13 6 7 1021.6 1021.7 0.0
25/03:00am 10.8 6.0 -2.2 40 5.0 NE 13 13 7 7 1021.5 1021.6 0.0
25/02:30am 9.6 4.8 -2.3 43 4.5 NE 13 15 7 8 1021.5 1021.6 0.0
25/02:00am 9.9 5.5 -2.7 41 4.8 NE 11 13 6 7 1021.6 1021.7 0.0
25/01:30am 10.0 6.0 -2.6 41 4.7 NE 9 11 5 6 1021.5 1021.6 0.0
25/01:00am 10.5 6.5 -2.5 40 5.0 NE 9 9 5 5 1021.5 1021.6 0.0
25/12:30am 10.6 6.2 -2.4 40 5.0 ENE 11 13 6 7 1021.3 1021.4 0.0
25/12:00am 11.2 6.8 -2.6 38 5.3 E 11 13 6 7 1021.2 1021.3 0.0
 
Date/Time
CST
Temp
°C
App
Temp
°C
Dew
Point
°C
Rel
Hum
%
Delta-T
°C
Wind Press
QNH
hPa
Press
MSL
hPa
Rain since
9am
mm
Dir  Spd
km/h
Gust
km/h
Spd
kts
Gust
kts
24/11:30pm 12.7 8.8 -1.6 37 5.7 E 9 11 5 6 1021.5 1021.6 0.0
24/11:00pm 12.3 8.3 -2.3 36 5.7 ENE 9 9 5 5 1021.7 1021.8 0.0
24/10:30pm 12.5 9.2 -1.1 39 5.4 E 6 7 3 4 1021.9 1022.0 0.0
24/10:00pm 13.0 10.8 -1.7 36 5.9 CALM 0 0 0 0 1021.9 1022.0 0.0
24/09:30pm 13.4 11.1 -2.5 33 6.2 CALM 0 0 0 0 1021.9 1022.0 0.0
24/09:00pm 14.2 10.9 -1.4 34 6.3 S 6 7 3 4 1021.9 1022.0 0.0
24/08:30pm 15.4 13.2 -1.2 32 6.8 CALM 0 0 0 0 1021.9 1022.0 0.0
24/08:00pm 16.2 12.3 -1.4 30 7.3 S 9 11 5 6 1021.9 1022.0 0.0
24/07:30pm 16.9 13.6 -1.2 29 7.6 S 6 9 3 5 1021.7 1021.8 0.0
24/07:00pm 18.3 14.8 -1.0 27 8.2 S 7 9 4 5 1021.5 1021.6 0.0
24/06:30pm 20.5 17.2 -1.3 23 9.4 S 6 9 3 5 1021.1 1021.2 0.0
24/06:00pm 21.5 18.0 -1.1 22 9.9 SSE 7 9 4 5 1020.8 1020.9 0.0
24/05:30pm 22.6 19.2 -0.8 21 10.4 SSE 7 9 4 5 1020.6 1020.6 0.0
24/05:00pm 23.9 20.5 -0.4 20 11.0 S 7 11 4 6 1020.6 1020.6 0.0
24/04:30pm 24.6 21.5 0.2 20 11.2 SW 6 7 3 4 1020.3 1020.3 0.0
24/04:00pm 24.9 21.5 -0.3 19 11.5 E 7 9 4 5 1020.2 1020.2 0.0
24/03:30pm 25.0 21.8 0.5 20 11.4 WSW 7 13 4 7 1020.3 1020.3 0.0
24/03:00pm 24.8 21.7 0.3 20 11.3 SSW 6 9 3 5 1020.5 1020.5 0.0
24/02:30pm 24.6 20.6 0.2 20 11.2 SW 11 13 6 7 1020.7 1020.8 0.0
24/02:00pm 24.8 22.1 0.3 20 11.3 S 4 7 2 4 1021.0 1021.1 0.0
24/01:30pm 24.5 21.4 0.1 20 11.2 S 6 11 3 6 1021.3 1021.4 0.0
24/01:00pm 23.7 20.4 0.1 21 10.8 S 7 11 4 6 1021.8 1021.9 0.0
24/12:30pm 24.1 20.5 0.4 21 10.9 E 9 13 5 7 1022.2 1022.3 0.0
24/12:00pm 23.6 20.0 0.7 22 10.5 ENE 9 15 5 8 1022.8 1022.9 0.0
24/11:30am 23.0 19.9 1.4 24 10.0 ENE 7 15 4 8 1023.4 1023.5 0.0
24/11:00am 22.0 18.5 1.1 25 9.6 E 9 15 5 8 1023.7 1023.8 0.0
24/10:30am 20.8 16.1 1.1 27 8.9 E 15 20 8 11 1023.8 1023.9 0.0
24/10:00am 19.8 14.9 1.7 30 8.3 E 17 22 9 12 1023.7 1023.8 0.0
24/09:30am 17.8 13.2 1.3 33 7.3 E 15 20 8 11 1023.4 1023.5 0.0
24/09:00am 15.5 10.4 0.9 37 6.3 E 17 22 9 12 1022.9 1023.0 0.0
24/08:30am 12.8 8.1 0.9 44 5.0 ESE 15 19 8 10 1023.0 1023.1 0.0
24/08:00am 11.0 7.4 0.4 48 4.3 ESE 9 13 5 7 1023.1 1023.2 0.0
24/07:30am 10.2 6.2 0.3 50 4.0 ESE 11 15 6 8 1022.7 1022.8 0.0
24/07:00am 9.4 5.3 0.1 52 3.7 SE 11 15 6 8 1022.5 1022.6 0.0
24/06:30am 11.3 6.6 1.0 49 4.3 SE 15 22 8 12 1022.4 1022.5 0.0
24/06:00am 10.8 6.8 0.8 50 4.1 SE 11 20 6 11 1021.9 1022.0 0.0
24/05:30am 8.1 4.2 -1.4 51 3.6 ESE 9 11 5 6 1021.7 1021.8 0.0
24/05:00am 9.4 5.6 -0.5 50 3.9 SE 9 17 5 9 1021.3 1021.4 0.0
24/04:30am 11.8 6.7 0.9 47 4.5 SSE 17 20 9 11 1021.2 1021.3 0.0
24/04:00am 9.8 6.0 -0.7 48 4.1 S 9 13 5 7 1021.3 1021.4 0.0
24/03:30am 11.2 7.0 -0.6 44 4.7 S 11 15 6 8 1021.0 1021.1 0.0
24/03:00am 11.5 7.8 0.0 45 4.7 S 9 13 5 7 1021.0 1021.1 0.0
24/02:30am 10.3 6.8 -1.4 44 4.6 SSW 7 11 4 6 1020.9 1021.0 0.0
24/02:00am 10.6 7.2 -0.8 45 4.5 S 7 9 4 5 1020.9 1021.0 0.0
24/01:30am 10.5 7.2 -1.5 43 4.7 SW 6 7 3 4 1021.0 1021.1 0.0
24/01:00am 9.7 7.3 -2.9 41 4.7 CALM 0 0 0 0 1020.8 1020.9 0.0
24/12:30am 10.5 8.2 -2.2 41 4.9 CALM 0 0 0 0 1020.7 1020.8 0.0
24/12:00am 10.6 8.2 -3.1 38 5.1 CALM 0 0 0 0 1020.7 1020.8 0.0
 
Date/Time
CST
Temp
°C
App
Temp
°C
Dew
Point
°C
Rel
Hum
%
Delta-T
°C
Wind Press
QNH
hPa
Press
MSL
hPa
Rain since
9am
mm
Dir  Spd
km/h
Gust
km/h
Spd
kts
Gust
kts
23/11:30pm 10.6 8.2 -3.5 37 5.2 CALM 0 0 0 0 1020.9 1021.0 0.0
23/11:00pm 11.2 8.7 -4.1 34 5.7 CALM 0 0 0 0 1020.9 1021.0 0.0
23/10:30pm 12.0 9.6 -3.0 35 5.7 CALM 0 0 0 0 1020.9 1021.0 0.0
23/10:00pm 13.0 10.6 -2.9 33 6.2 CALM 0 0 0 0 1021.0 1021.1 0.0
23/09:30pm 14.4 10.9 -1.6 33 6.5 W 7 9 4 5 1020.9 1021.0 0.0
23/09:00pm 15.1 11.1 -2.3 30 7.0 W 9 11 5 6 1020.9 1021.0 0.0
23/08:30pm 15.7 11.4 -1.8 30 7.1 W 11 11 6 6 1020.6 1020.6 0.0
23/08:00pm 17.6 13.3 -1.6 27 8.0 W 11 13 6 7 1020.3 1020.3 0.0
23/07:30pm 16.8 12.9 -1.8 28 7.7 WNW 9 11 5 6 1020.0 1020.0 0.0
23/07:00pm 16.7 12.7 -2.4 27 7.8 NW 9 11 5 6 1019.7 1019.7 0.0
23/06:30pm 18.0 14.6 -2.3 25 8.4 WNW 6 7 3 4 1019.4 1019.4 0.0
23/06:00pm 19.0 15.3 -2.6 23 9.0 W 7 7 4 4 1019.2 1019.2 0.0
23/05:30pm 22.7 18.8 -1.4 20 10.6 W 9 11 5 6 1019.0 1019.0 0.0
23/05:00pm 24.6 20.3 -1.3 18 11.6 W 11 15 6 8 1018.8 1018.8 0.0
23/04:30pm 25.1 20.8 -1.6 17 11.9 NW 11 17 6 9 1018.5 1018.5 0.0

Other Formats:

Comma delimited format used in spreadsheet applications
http://www.bom.gov.au/fwo/IDS60801/IDS60801.95481.axf

JavaScript Object Notation format (JSON) in row-major order
http://www.bom.gov.au/fwo/IDS60801/IDS60801.95481.json